createdAt,value
2017-12-22T00:01:58.820Z,102585
2017-12-22T00:04:27.128Z,102573
2017-12-22T00:06:55.256Z,102575
2017-12-22T00:09:24.257Z,102575
2017-12-22T00:14:31.508Z,102576
2017-12-22T00:16:59.653Z,102568
2017-12-22T00:19:27.745Z,102570
2017-12-22T00:21:55.935Z,102574
2017-12-22T00:24:24.060Z,102574
2017-12-22T00:26:52.312Z,102560
2017-12-22T00:29:21.191Z,102567
2017-12-22T00:31:49.792Z,102564
2017-12-22T00:34:21.241Z,102558
2017-12-22T00:36:50.153Z,102555
2017-12-22T00:39:18.382Z,102558
2017-12-22T00:41:46.500Z,102554
2017-12-22T00:44:14.728Z,102543
2017-12-22T00:46:42.822Z,102538
2017-12-22T00:49:11.823Z,102542
2017-12-22T00:51:41.903Z,102539
2017-12-22T00:54:16.953Z,102547
2017-12-22T00:56:45.136Z,102536
2017-12-22T00:59:13.242Z,102541
2017-12-22T01:01:41.380Z,102532
2017-12-22T01:04:10.557Z,102531
2017-12-22T01:06:39.356Z,102536
2017-12-22T01:09:09.504Z,102529
2017-12-22T01:11:39.392Z,102534
2017-12-22T01:14:07.512Z,102530
2017-12-22T01:16:41.135Z,102534
2017-12-22T01:19:14.616Z,102533
2017-12-22T01:21:42.728Z,102524
2017-12-22T01:24:10.929Z,102524
2017-12-22T01:26:39.780Z,102525
2017-12-22T01:29:07.951Z,102520
2017-12-22T01:31:36.037Z,102513
2017-12-22T01:34:04.311Z,102520
2017-12-22T01:36:32.528Z,102518
2017-12-22T01:39:01.388Z,102521
2017-12-22T01:41:29.581Z,102520
2017-12-22T01:43:57.690Z,102522
2017-12-22T01:46:25.827Z,102513
2017-12-22T01:48:53.960Z,102513
2017-12-22T01:51:22.328Z,102510
2017-12-22T01:53:51.349Z,102513
2017-12-22T01:56:19.517Z,102515
2017-12-22T01:58:48.992Z,102515
2017-12-22T02:01:21.966Z,102514
2017-12-22T02:03:52.746Z,102519
2017-12-22T02:06:20.851Z,102508
2017-12-22T02:08:49.764Z,102507
2017-12-22T02:11:18.030Z,102503
2017-12-22T02:13:46.980Z,102509
2017-12-22T02:16:15.216Z,102500
2017-12-22T02:18:43.339Z,102495
2017-12-22T02:21:11.495Z,102495
2017-12-22T02:23:39.592Z,102493
2017-12-22T02:26:07.838Z,102490
2017-12-22T02:34:42.636Z,102477
2017-12-22T02:37:10.803Z,102479
2017-12-22T02:39:39.012Z,102480
2017-12-22T02:42:08.039Z,102480
2017-12-22T02:44:36.212Z,102481
2017-12-22T02:47:05.311Z,102474
2017-12-22T02:49:33.388Z,102474
2017-12-22T02:52:01.525Z,102478
2017-12-22T02:54:30.402Z,102470
2017-12-22T02:56:59.381Z,102464
2017-12-22T02:59:27.543Z,102464
2017-12-22T03:01:55.864Z,102468
2017-12-22T03:04:23.995Z,102461
2017-12-22T03:06:52.088Z,102464
2017-12-22T03:09:21.025Z,102461
2017-12-22T03:11:49.128Z,102460
2017-12-22T03:14:17.327Z,102456
2017-12-22T03:16:46.217Z,102442
2017-12-22T03:19:15.143Z,102447
2017-12-22T03:21:43.247Z,102452
2017-12-22T03:24:12.304Z,102446
2017-12-22T03:26:40.480Z,102445
2017-12-22T03:29:08.565Z,102447
2017-12-22T03:31:38.419Z,102448
2017-12-22T03:34:06.755Z,102435
2017-12-22T03:39:14.943Z,102426
2017-12-22T03:41:43.919Z,102439
2017-12-22T03:46:51.135Z,102430
2017-12-22T03:49:20.772Z,102423
2017-12-22T03:51:49.115Z,102427
2017-12-22T03:54:17.767Z,102431
2017-12-22T03:56:50.646Z,102420
2017-12-22T03:59:18.918Z,102412
2017-12-22T04:01:47.081Z,102424
2017-12-22T04:04:15.798Z,102417
2017-12-22T04:06:43.922Z,102425
2017-12-22T04:09:12.850Z,102426
2017-12-22T04:11:40.978Z,102429
2017-12-22T04:14:09.948Z,102428
2017-12-22T04:16:38.200Z,102426
2017-12-22T04:19:06.354Z,102432
2017-12-22T04:21:34.456Z,102429
2017-12-22T04:24:03.479Z,102423
2017-12-22T04:26:32.431Z,102422
2017-12-22T04:29:00.592Z,102425
2017-12-22T04:31:28.716Z,102420
2017-12-22T04:33:57.680Z,102421
2017-12-22T04:36:30.457Z,102422
2017-12-22T04:38:58.613Z,102424
2017-12-22T04:41:26.711Z,102421
2017-12-22T04:43:54.863Z,102430
2017-12-22T04:46:22.970Z,102423
2017-12-22T04:48:51.050Z,102422
2017-12-22T04:51:19.939Z,102427
2017-12-22T04:53:48.855Z,102418
2017-12-22T04:56:19.706Z,102420
2017-12-22T04:58:47.864Z,102419
2017-12-22T05:05:20.395Z,102413
2017-12-22T05:07:48.684Z,102416
2017-12-22T05:10:16.766Z,102419
2017-12-22T05:12:44.940Z,102413
2017-12-22T05:15:13.087Z,102413
2017-12-22T05:17:41.176Z,102411
2017-12-22T05:20:09.509Z,102405
2017-12-22T05:22:38.388Z,102416
2017-12-22T05:25:06.520Z,102410
2017-12-22T05:27:34.702Z,102416
2017-12-22T05:33:18.362Z,102408
2017-12-22T05:35:46.519Z,102413
2017-12-22T05:38:14.676Z,102411
2017-12-22T05:40:43.872Z,102412
2017-12-22T05:49:55.803Z,102410
2017-12-22T05:52:24.016Z,102409
2017-12-22T05:54:52.115Z,102410
2017-12-22T06:01:23.500Z,102404
2017-12-22T06:03:52.450Z,102408
2017-12-22T06:06:20.778Z,102410
2017-12-22T06:08:50.104Z,102411
2017-12-22T06:11:18.392Z,102413
2017-12-22T06:13:46.552Z,102419
2017-12-22T06:16:15.003Z,102411
2017-12-22T06:18:43.284Z,102407
2017-12-22T06:21:12.147Z,102418
2017-12-22T06:23:40.606Z,102418
2017-12-22T06:26:09.671Z,102423
2017-12-22T06:28:37.830Z,102416
2017-12-22T06:31:06.685Z,102421
2017-12-22T06:33:34.782Z,102426
2017-12-22T06:36:03.723Z,102420
2017-12-22T06:38:31.821Z,102425
2017-12-22T06:40:59.944Z,102421
2017-12-22T06:43:28.952Z,102420
2017-12-22T06:45:59.946Z,102419
2017-12-22T06:48:28.067Z,102422
2017-12-22T06:50:56.156Z,102425
2017-12-22T06:53:24.302Z,102422
2017-12-22T06:55:52.721Z,102417
2017-12-22T06:58:20.809Z,102427
2017-12-22T07:00:48.975Z,102415
2017-12-22T07:03:17.080Z,102410
2017-12-22T07:05:45.955Z,102417
2017-12-22T07:08:14.075Z,102414
2017-12-22T07:10:43.098Z,102417
2017-12-22T07:13:11.246Z,102418
2017-12-22T07:15:39.347Z,102425
2017-12-22T07:18:07.496Z,102420
2017-12-22T07:20:35.594Z,102430
2017-12-22T07:23:03.671Z,102429
2017-12-22T07:25:31.816Z,102432
2017-12-22T07:27:59.923Z,102438
2017-12-22T07:30:28.081Z,102442
2017-12-22T07:32:56.220Z,102443
2017-12-22T07:35:25.305Z,102443
2017-12-22T07:37:53.422Z,102445
2017-12-22T07:40:22.457Z,102449
2017-12-22T07:42:51.405Z,102455
2017-12-22T07:45:19.500Z,102461
2017-12-22T07:47:47.590Z,102463
2017-12-22T07:50:16.496Z,102468
2017-12-22T07:52:44.675Z,102462
2017-12-22T07:55:12.832Z,102478
2017-12-22T07:57:41.696Z,102472
2017-12-22T08:00:09.855Z,102469
2017-12-22T08:02:37.971Z,102464
2017-12-22T08:05:06.808Z,102472
2017-12-22T08:07:35.872Z,102474
2017-12-22T08:10:04.025Z,102473
2017-12-22T08:12:32.957Z,102474
2017-12-22T08:15:01.047Z,102474
2017-12-22T08:17:29.197Z,102485
2017-12-22T08:19:57.321Z,102485
2017-12-22T08:22:25.445Z,102481
2017-12-22T08:24:53.571Z,102482
2017-12-22T08:27:22.418Z,102489
2017-12-22T08:29:50.553Z,102484
2017-12-22T08:32:20.211Z,102481
2017-12-22T08:34:48.373Z,102478
2017-12-22T08:37:16.470Z,102479
2017-12-22T08:39:44.827Z,102477
2017-12-22T08:42:12.929Z,102487
2017-12-22T08:44:41.027Z,102486
2017-12-22T08:47:10.867Z,102492
2017-12-22T08:49:42.594Z,102503
2017-12-22T08:52:11.520Z,102503
2017-12-22T08:54:39.609Z,102510
2017-12-22T08:57:07.840Z,102508
2017-12-22T08:59:36.721Z,102514
2017-12-22T09:02:05.620Z,102509
2017-12-22T09:04:34.526Z,102513
2017-12-22T09:07:02.698Z,102510
2017-12-22T09:09:30.796Z,102509
2017-12-22T09:11:58.931Z,102512
2017-12-22T09:14:27.883Z,102506
2017-12-22T09:16:56.087Z,102513
2017-12-22T09:19:24.985Z,102520
2017-12-22T09:21:54.161Z,102527
2017-12-22T09:24:22.924Z,102529
2017-12-22T09:26:51.028Z,102535
2017-12-22T09:29:19.167Z,102540
2017-12-22T09:31:47.307Z,102543
2017-12-22T09:34:15.399Z,102542
2017-12-22T09:36:43.508Z,102542
2017-12-22T09:39:11.613Z,102537
2017-12-22T09:41:40.515Z,102544
2017-12-22T09:44:08.672Z,102556
2017-12-22T09:46:37.595Z,102550
2017-12-22T09:49:05.703Z,102549
2017-12-22T09:51:34.748Z,102542
2017-12-22T09:54:02.928Z,102546
2017-12-22T09:56:31.031Z,102558
2017-12-22T09:58:59.169Z,102562
2017-12-22T10:01:27.284Z,102566
2017-12-22T10:03:55.444Z,102556
2017-12-22T10:06:23.545Z,102558
2017-12-22T10:08:51.701Z,102561
2017-12-22T10:11:19.784Z,102553
2017-12-22T10:13:47.947Z,102556
2017-12-22T10:16:16.835Z,102556
2017-12-22T10:18:44.941Z,102557
2017-12-22T10:21:13.865Z,102560
2017-12-22T10:23:41.953Z,102555
2017-12-22T10:26:10.138Z,102559
2017-12-22T10:28:38.369Z,102552
2017-12-22T10:31:06.461Z,102553
2017-12-22T10:33:34.611Z,102550
2017-12-22T10:36:03.808Z,102558
2017-12-22T10:38:32.712Z,102558
2017-12-22T10:41:01.632Z,102568
2017-12-22T10:43:29.731Z,102560
2017-12-22T10:45:57.891Z,102560
2017-12-22T10:48:27.961Z,102552
2017-12-22T10:50:56.866Z,102560
2017-12-22T10:53:25.008Z,102555
2017-12-22T10:55:53.907Z,102555
2017-12-22T10:58:22.812Z,102556
2017-12-22T11:00:51.741Z,102557
2017-12-22T11:03:19.864Z,102558
2017-12-22T11:05:47.938Z,102560
2017-12-22T11:08:16.922Z,102560
2017-12-22T11:10:45.072Z,102561
2017-12-22T11:13:13.164Z,102565
2017-12-22T11:15:41.389Z,102561
2017-12-22T11:18:09.559Z,102558
2017-12-22T11:20:38.297Z,102561
2017-12-22T11:23:06.384Z,102549
2017-12-22T11:25:35.305Z,102559
2017-12-22T11:28:03.536Z,102560
2017-12-22T11:30:32.519Z,102560
2017-12-22T11:33:00.710Z,102565
2017-12-22T11:35:28.863Z,102553
2017-12-22T11:37:57.243Z,102552
2017-12-22T11:43:17.378Z,102553
2017-12-22T11:45:46.376Z,102547
2017-12-22T11:48:15.273Z,102550
2017-12-22T11:50:45.245Z,102539
2017-12-22T11:53:13.903Z,102543
2017-12-22T11:55:42.026Z,102538
2017-12-22T11:58:10.195Z,102530
2017-12-22T12:00:38.341Z,102532
2017-12-22T12:03:06.455Z,102537
2017-12-22T12:05:35.483Z,102539
2017-12-22T12:08:03.645Z,102540
2017-12-22T12:10:31.811Z,102543
2017-12-22T12:13:00.933Z,102546
2017-12-22T12:15:29.083Z,102548
2017-12-22T12:17:57.942Z,102548
2017-12-22T12:20:26.350Z,102548
2017-12-22T12:22:55.219Z,102544
2017-12-22T12:25:23.617Z,102547
2017-12-22T12:27:52.463Z,102550
2017-12-22T12:30:20.675Z,102559
2017-12-22T12:32:49.567Z,102555
2017-12-22T12:35:18.425Z,102559
2017-12-22T12:37:47.177Z,102564
2017-12-22T12:40:15.484Z,102555
2017-12-22T12:42:43.595Z,102563
2017-12-22T12:45:12.442Z,102565
2017-12-22T12:50:55.540Z,102562
2017-12-22T12:53:24.990Z,102556
2017-12-22T12:55:53.279Z,102569
2017-12-22T12:58:21.529Z,102572
2017-12-22T13:00:49.658Z,102570
2017-12-22T13:03:19.677Z,102579
2017-12-22T13:05:48.920Z,102569
2017-12-22T13:08:17.848Z,102579
2017-12-22T13:10:45.988Z,102586
2017-12-22T13:13:14.079Z,102591
2017-12-22T13:15:42.422Z,102587
2017-12-22T13:18:10.532Z,102582
2017-12-22T13:20:38.760Z,102583
2017-12-22T13:23:06.860Z,102579
2017-12-22T13:25:35.027Z,102574
2017-12-22T13:28:03.243Z,102585
2017-12-22T13:30:31.339Z,102580
2017-12-22T13:33:00.456Z,102593
2017-12-22T13:35:28.650Z,102586
2017-12-22T13:37:56.791Z,102572
2017-12-22T13:40:26.403Z,102577
2017-12-22T13:42:54.512Z,102578
2017-12-22T13:45:22.679Z,102563
2017-12-22T13:47:50.863Z,102581
2017-12-22T13:50:18.947Z,102572
2017-12-22T13:52:47.085Z,102566
2017-12-22T13:55:15.219Z,102566
2017-12-22T13:57:44.192Z,102573
2017-12-22T14:00:12.281Z,102581
2017-12-22T14:02:40.470Z,102575
2017-12-22T14:05:10.272Z,102590
2017-12-22T14:07:39.111Z,102568
2017-12-22T14:10:08.208Z,102570
2017-12-22T14:15:28.093Z,102577
2017-12-22T14:17:56.178Z,102582
2017-12-22T14:20:24.277Z,102583
2017-12-22T14:22:53.363Z,102586
2017-12-22T14:25:21.559Z,102590
2017-12-22T14:27:49.685Z,102579
2017-12-22T14:30:17.768Z,102581
2017-12-22T14:32:46.156Z,102583
2017-12-22T14:35:14.387Z,102574
2017-12-22T14:37:43.509Z,102574
2017-12-22T14:40:11.695Z,102569
2017-12-22T14:42:40.895Z,102581
2017-12-22T14:45:09.102Z,102587
2017-12-22T14:47:37.222Z,102579
2017-12-22T14:50:06.032Z,102576
2017-12-22T14:52:35.076Z,102573
2017-12-22T14:55:04.012Z,102570
2017-12-22T14:57:32.124Z,102567
2017-12-22T15:00:00.545Z,102574
2017-12-22T15:02:28.650Z,102573
2017-12-22T15:04:56.767Z,102583
2017-12-22T15:07:25.737Z,102586
2017-12-22T15:09:54.075Z,102589
2017-12-22T15:12:22.211Z,102594
2017-12-22T15:14:51.062Z,102585
2017-12-22T15:17:19.156Z,102598
2017-12-22T15:19:48.094Z,102598
2017-12-22T15:22:16.261Z,102611
2017-12-22T15:24:44.411Z,102600
2017-12-22T15:27:13.279Z,102609
2017-12-22T15:29:41.555Z,102620
2017-12-22T15:32:09.920Z,102615
2017-12-22T15:34:38.070Z,102615
2017-12-22T15:37:06.757Z,102621
2017-12-22T15:39:34.884Z,102613
2017-12-22T15:42:04.723Z,102608
2017-12-22T15:44:32.878Z,102614
2017-12-22T15:47:01.807Z,102610
2017-12-22T15:49:30.454Z,102615
2017-12-22T15:51:59.449Z,102616
2017-12-22T15:54:28.360Z,102614
2017-12-22T15:56:57.391Z,102619
2017-12-22T15:59:25.573Z,102629
2017-12-22T16:07:11.659Z,102650
2017-12-22T16:09:39.821Z,102652
2017-12-22T16:12:08.783Z,102655
2017-12-22T16:14:36.875Z,102662
2017-12-22T16:17:05.797Z,102669
2017-12-22T16:19:34.172Z,102674
2017-12-22T16:22:02.416Z,102678
2017-12-22T16:24:31.360Z,102663
2017-12-22T16:26:59.508Z,102676
2017-12-22T16:29:27.726Z,102669
2017-12-22T16:31:56.014Z,102668
2017-12-22T16:34:24.115Z,102676
2017-12-22T16:36:53.040Z,102670
2017-12-22T16:39:22.288Z,102666
2017-12-22T16:41:50.452Z,102674
2017-12-22T16:44:18.980Z,102676
2017-12-22T16:46:47.081Z,102678
2017-12-22T16:49:15.164Z,102671
2017-12-22T16:54:58.493Z,102675
2017-12-22T16:57:26.575Z,102684
2017-12-22T16:59:54.733Z,102675
2017-12-22T17:02:22.815Z,102688
2017-12-22T17:04:50.982Z,102686
2017-12-22T17:07:19.114Z,102688
2017-12-22T17:09:48.039Z,102684
2017-12-22T17:12:16.185Z,102688
2017-12-22T17:14:45.104Z,102687
2017-12-22T17:17:13.252Z,102687
2017-12-22T17:19:42.155Z,102688
2017-12-22T17:22:11.721Z,102691
2017-12-22T17:24:39.880Z,102699
2017-12-22T17:27:08.883Z,102700
2017-12-22T17:29:36.980Z,102701
2017-12-22T17:32:05.892Z,102710
2017-12-22T17:34:34.591Z,102699
2017-12-22T17:37:02.803Z,102697
2017-12-22T17:39:31.937Z,102687
2017-12-22T17:42:00.936Z,102689
2017-12-22T17:44:29.860Z,102688
2017-12-22T17:51:02.788Z,102695
2017-12-22T17:56:31.722Z,102701
2017-12-22T17:58:59.810Z,102708
2017-12-22T18:01:33.524Z,102705
2017-12-22T18:04:02.398Z,102710
2017-12-22T18:06:30.546Z,102704
2017-12-22T18:08:58.731Z,102718
2017-12-22T18:11:26.865Z,102718
2017-12-22T18:13:55.029Z,102717
2017-12-22T18:16:23.178Z,102719
2017-12-22T18:18:53.086Z,102713
2017-12-22T18:21:21.583Z,102724
2017-12-22T18:23:50.770Z,102738
2017-12-22T18:26:18.855Z,102717
2017-12-22T18:28:48.133Z,102722
2017-12-22T18:31:16.249Z,102722
2017-12-22T18:33:44.419Z,102723
2017-12-22T18:36:12.888Z,102726
2017-12-22T18:38:41.771Z,102734
2017-12-22T18:41:10.732Z,102737
2017-12-22T18:43:38.819Z,102743
2017-12-22T18:46:06.919Z,102749
2017-12-22T18:48:36.212Z,102758
2017-12-22T18:51:05.165Z,102753
2017-12-22T18:53:33.567Z,102751
2017-12-22T18:56:01.649Z,102746
2017-12-22T18:58:30.539Z,102749
2017-12-22T19:00:59.422Z,102742
2017-12-22T19:03:31.372Z,102748
2017-12-22T19:05:59.553Z,102752
2017-12-22T19:08:27.645Z,102749
2017-12-22T19:10:56.554Z,102757
2017-12-22T19:13:24.641Z,102754
2017-12-22T19:15:52.775Z,102749
2017-12-22T19:18:20.921Z,102762
2017-12-22T19:20:49.039Z,102768
2017-12-22T19:23:17.890Z,102772
2017-12-22T19:25:46.044Z,102773
2017-12-22T19:28:14.195Z,102774
2017-12-22T19:30:42.349Z,102783
2017-12-22T19:33:11.269Z,102776
2017-12-22T19:35:39.705Z,102784
2017-12-22T19:38:07.910Z,102777
2017-12-22T19:40:35.994Z,102781
2017-12-22T19:43:04.188Z,102782
2017-12-22T19:45:32.546Z,102776
2017-12-22T19:48:00.644Z,102775
2017-12-22T19:50:28.825Z,102781
2017-12-22T19:52:57.127Z,102772
2017-12-22T19:55:25.988Z,102774
2017-12-22T19:57:54.131Z,102777
2017-12-22T20:00:32.404Z,102782
2017-12-22T20:03:01.410Z,102768
2017-12-22T20:05:30.341Z,102776
2017-12-22T20:10:40.445Z,102770
2017-12-22T20:13:08.698Z,102780
2017-12-22T20:15:37.995Z,102784
2017-12-22T20:18:06.143Z,102784
2017-12-22T20:20:34.339Z,102784
2017-12-22T20:23:02.503Z,102779
2017-12-22T20:25:30.751Z,102789
2017-12-22T20:27:59.792Z,102789
2017-12-22T20:30:28.134Z,102791
2017-12-22T20:32:56.313Z,102790
2017-12-22T20:35:24.425Z,102787
2017-12-22T20:37:53.580Z,102791
2017-12-22T20:40:21.801Z,102803
2017-12-22T20:42:52.300Z,102787
2017-12-22T20:45:23.347Z,102780
2017-12-22T20:47:56.452Z,102788
2017-12-22T20:50:24.599Z,102783
2017-12-22T20:52:52.748Z,102777
2017-12-22T20:55:21.931Z,102779
2017-12-22T20:57:50.849Z,102777
2017-12-22T21:00:21.847Z,102776
2017-12-22T21:02:50.028Z,102776
2017-12-22T21:05:18.267Z,102785
2017-12-22T21:07:46.355Z,102783
2017-12-22T21:10:14.752Z,102781
2017-12-22T21:12:43.091Z,102769
2017-12-22T21:15:25.737Z,102781
2017-12-22T21:17:53.888Z,102772
2017-12-22T21:20:21.981Z,102777
2017-12-22T21:22:50.350Z,102768
2017-12-22T21:25:19.412Z,102778
2017-12-22T21:27:48.916Z,102783
2017-12-22T21:30:17.176Z,102773
2017-12-22T21:32:45.343Z,102782
2017-12-22T21:35:14.501Z,102788
2017-12-22T21:37:42.691Z,102795
2017-12-22T21:40:11.008Z,102808
2017-12-22T21:42:39.104Z,102795
2017-12-22T21:45:07.378Z,102798
2017-12-22T21:47:35.494Z,102794
2017-12-22T21:50:04.880Z,102797
2017-12-22T21:52:32.970Z,102795
2017-12-22T21:55:01.992Z,102785
2017-12-22T21:57:30.856Z,102796
2017-12-22T22:00:03.946Z,102784
2017-12-22T22:02:32.286Z,102782
2017-12-22T22:05:00.464Z,102792
2017-12-22T22:07:28.792Z,102781
2017-12-22T22:09:58.479Z,102774
2017-12-22T22:12:28.144Z,102776
2017-12-22T22:14:56.312Z,102780
2017-12-22T22:17:24.402Z,102780
2017-12-22T22:19:58.369Z,102786
2017-12-22T22:22:27.339Z,102791
2017-12-22T22:24:55.454Z,102781
2017-12-22T22:27:23.856Z,102794
2017-12-22T22:29:51.963Z,102793
2017-12-22T22:32:21.466Z,102796
2017-12-22T22:34:50.406Z,102809
2017-12-22T22:37:18.541Z,102821
2017-12-22T22:39:48.164Z,102812
2017-12-22T22:42:17.055Z,102812
2017-12-22T22:44:46.168Z,102818
2017-12-22T22:47:14.365Z,102817
2017-12-22T22:49:42.833Z,102817
2017-12-22T22:52:11.365Z,102819
2017-12-22T22:54:39.447Z,102820
2017-12-22T22:57:08.910Z,102823
2017-12-22T22:59:37.116Z,102820
2017-12-22T23:02:05.295Z,102822
2017-12-22T23:04:33.523Z,102812
2017-12-22T23:07:01.612Z,102804
2017-12-22T23:09:29.833Z,102805
2017-12-22T23:11:58.772Z,102791
2017-12-22T23:14:27.731Z,102794
2017-12-22T23:16:55.839Z,102799
2017-12-22T23:19:24.137Z,102800
2017-12-22T23:21:52.426Z,102788
2017-12-22T23:24:21.561Z,102779
2017-12-22T23:26:52.596Z,102782
2017-12-22T23:29:25.601Z,102782
2017-12-22T23:31:54.732Z,102776
2017-12-22T23:34:22.872Z,102778
2017-12-22T23:36:57.788Z,102790
2017-12-22T23:39:25.897Z,102786
2017-12-22T23:41:54.069Z,102780
2017-12-22T23:44:22.147Z,102781
2017-12-22T23:46:50.277Z,102780
2017-12-22T23:49:18.491Z,102777
2017-12-22T23:51:47.344Z,102776
2017-12-22T23:54:15.451Z,102772
2017-12-22T23:56:43.552Z,102775
2017-12-22T23:59:11.673Z,102773
